createdAt,value
2019-01-26T00:00:25.467Z,-1.20
2019-01-26T00:02:53.112Z,-1.20
2019-01-26T00:05:20.782Z,-1.20
2019-01-26T00:07:48.479Z,-1.20
2019-01-26T00:10:16.108Z,-1.20
2019-01-26T00:12:43.755Z,-1.20
2019-01-26T00:15:11.456Z,-1.20
2019-01-26T00:17:39.105Z,-1.30
2019-01-26T00:20:10.019Z,-1.20
2019-01-26T00:22:38.617Z,-1.30
2019-01-26T00:25:06.322Z,-1.30
2019-01-26T00:27:33.955Z,-1.30
2019-01-26T00:30:01.603Z,-1.30
2019-01-26T00:32:31.198Z,-1.30
2019-01-26T00:34:58.844Z,-1.30
2019-01-26T00:37:26.474Z,-1.30
2019-01-26T00:39:54.127Z,-1.30
2019-01-26T00:42:21.756Z,-1.40
2019-01-26T00:44:49.399Z,-1.30
2019-01-26T00:47:17.030Z,-1.40
2019-01-26T00:49:44.670Z,-1.30
2019-01-26T00:52:12.302Z,-1.30
2019-01-26T00:54:46.827Z,-1.30
2019-01-26T00:57:14.455Z,-1.30
2019-01-26T00:59:42.102Z,-1.30
2019-01-26T01:02:09.738Z,-1.30
2019-01-26T01:04:38.350Z,-1.20
2019-01-26T01:07:05.981Z,-1.20
2019-01-26T01:09:33.659Z,-1.20
2019-01-26T01:12:01.330Z,-1.20
2019-01-26T01:14:28.974Z,-1.20
2019-01-26T01:16:56.607Z,-1.20
2019-01-26T01:19:24.254Z,-1.20
2019-01-26T01:21:51.964Z,-1.20
2019-01-26T01:24:19.714Z,-1.20
2019-01-26T01:26:47.347Z,-1.20
2019-01-26T01:29:14.994Z,-1.20
2019-01-26T01:31:42.635Z,-1.20
2019-01-26T01:34:11.272Z,-1.20
2019-01-26T01:36:38.914Z,-1.20
2019-01-26T01:39:07.420Z,-1.20
2019-01-26T01:41:35.067Z,-1.10
2019-01-26T01:44:02.706Z,-1.10
2019-01-26T01:46:30.353Z,-1.10
2019-01-26T01:48:58.062Z,-1.10
2019-01-26T01:51:25.715Z,-1.10
2019-01-26T01:53:53.342Z,-1.10
2019-01-26T01:56:20.989Z,-1.10
2019-01-26T01:58:48.618Z,-1.10
2019-01-26T02:01:16.257Z,-1.10
2019-01-26T02:03:43.907Z,-1.00
2019-01-26T02:06:11.551Z,-1.00
2019-01-26T02:08:39.183Z,-1.00
2019-01-26T02:11:06.828Z,-1.00
2019-01-26T02:13:34.462Z,-1.00
2019-01-26T02:16:02.179Z,-1.00
2019-01-26T02:18:29.819Z,-1.00
2019-01-26T02:20:57.463Z,-1.00
2019-01-26T02:23:25.103Z,-1.00
2019-01-26T02:25:52.780Z,-0.90
2019-01-26T02:28:20.462Z,-1.00
2019-01-26T02:30:48.106Z,-1.00
2019-01-26T02:33:15.751Z,-1.00
2019-01-26T02:35:43.399Z,-0.90
2019-01-26T02:38:11.033Z,-0.90
2019-01-26T02:40:38.670Z,-0.90
2019-01-26T02:43:06.312Z,-0.90
2019-01-26T02:45:33.954Z,-0.90
2019-01-26T02:48:01.587Z,-0.90
2019-01-26T02:50:29.213Z,-0.90
2019-01-26T02:52:56.875Z,-0.90
2019-01-26T02:55:24.510Z,-0.90
2019-01-26T02:57:52.158Z,-0.90
2019-01-26T03:00:21.162Z,-0.90
2019-01-26T03:02:48.811Z,-0.90
2019-01-26T03:05:16.921Z,-0.90
2019-01-26T03:07:44.566Z,-0.90
2019-01-26T03:10:13.671Z,-0.90
2019-01-26T03:12:42.234Z,-0.80
2019-01-26T03:15:11.441Z,-0.80
2019-01-26T03:17:39.131Z,-0.80
2019-01-26T03:20:08.440Z,-0.80
2019-01-26T03:22:36.078Z,-0.80
2019-01-26T03:25:04.681Z,-0.80
2019-01-26T03:27:32.331Z,-0.80
2019-01-26T03:29:59.958Z,-0.70
2019-01-26T03:32:27.604Z,-0.70
2019-01-26T03:34:55.234Z,-0.70
2019-01-26T03:37:23.163Z,-0.70
2019-01-26T03:39:50.799Z,-0.60
2019-01-26T03:42:18.438Z,-0.60
2019-01-26T03:44:46.079Z,-0.60
2019-01-26T03:47:14.066Z,-0.60
2019-01-26T03:49:41.863Z,-0.60
2019-01-26T03:52:09.508Z,-0.60
2019-01-26T03:54:37.139Z,-0.60
2019-01-26T03:59:32.145Z,-0.50
2019-01-26T04:01:59.776Z,-0.50
2019-01-26T04:04:27.444Z,-0.40
2019-01-26T04:06:55.066Z,-0.40
2019-01-26T04:09:22.715Z,-0.40
2019-01-26T04:11:50.347Z,-0.40
2019-01-26T04:14:18.973Z,-0.40
2019-01-26T04:16:46.680Z,-0.40
2019-01-26T04:19:14.333Z,-0.30
2019-01-26T04:21:41.960Z,-0.30
2019-01-26T04:24:09.602Z,-0.30
2019-01-26T04:26:37.234Z,-0.30
2019-01-26T04:29:04.887Z,-0.30
2019-01-26T04:31:32.527Z,-0.30
2019-01-26T04:34:00.168Z,-0.30
2019-01-26T04:36:27.803Z,-0.30
2019-01-26T04:38:55.450Z,-0.30
2019-01-26T04:41:23.154Z,-0.20
2019-01-26T04:43:50.787Z,-0.20
2019-01-26T04:46:18.433Z,-0.20
2019-01-26T04:48:46.069Z,-0.10
2019-01-26T04:51:13.707Z,-0.10
2019-01-26T04:53:41.415Z,-0.10
2019-01-26T04:56:09.066Z,-0.10
2019-01-26T04:58:36.705Z,-0.10
2019-01-26T05:01:04.338Z,0.00
2019-01-26T05:03:31.969Z,-0.10
2019-01-26T05:05:59.643Z,-0.10
2019-01-26T05:08:27.286Z,-0.10
2019-01-26T05:10:54.922Z,0.00
2019-01-26T05:13:22.545Z,0.00
2019-01-26T05:15:50.191Z,0.00
2019-01-26T05:18:17.884Z,0.00
2019-01-26T05:20:45.518Z,0.00
2019-01-26T05:23:13.147Z,0.00
2019-01-26T05:25:40.790Z,0.00
2019-01-26T05:28:08.420Z,0.10
2019-01-26T05:30:36.063Z,0.10
2019-01-26T05:33:03.774Z,0.10
2019-01-26T05:35:31.421Z,0.10
2019-01-26T05:37:59.045Z,0.10
2019-01-26T05:40:26.689Z,0.20
2019-01-26T05:42:54.314Z,0.20
2019-01-26T05:45:22.330Z,0.20
2019-01-26T05:47:49.966Z,0.20
2019-01-26T05:50:18.467Z,0.20
2019-01-26T05:52:46.174Z,0.20
2019-01-26T05:55:13.967Z,0.20
2019-01-26T05:57:41.630Z,0.20
2019-01-26T06:00:10.807Z,0.30
2019-01-26T06:02:38.451Z,0.30
2019-01-26T06:05:06.349Z,0.30
2019-01-26T06:07:33.991Z,0.30
2019-01-26T06:10:01.624Z,0.30
2019-01-26T06:12:29.269Z,0.30
2019-01-26T06:14:56.896Z,0.30
2019-01-26T06:17:24.535Z,0.30
2019-01-26T06:19:52.158Z,0.40
2019-01-26T06:22:19.814Z,0.30
2019-01-26T06:24:47.451Z,0.40
2019-01-26T06:27:15.095Z,0.40
2019-01-26T06:29:42.718Z,0.40
2019-01-26T06:32:10.367Z,0.50
2019-01-26T06:34:37.994Z,0.50
2019-01-26T06:37:05.698Z,0.50
2019-01-26T06:42:00.699Z,0.50
2019-01-26T06:44:28.324Z,0.50
2019-01-26T06:46:55.974Z,0.50
2019-01-26T06:49:23.599Z,0.50
2019-01-26T06:51:54.202Z,0.50
2019-01-26T06:54:21.835Z,0.50
2019-01-26T06:56:49.481Z,0.60
2019-01-26T06:59:17.109Z,0.60
2019-01-26T07:01:44.766Z,0.60
2019-01-26T07:04:14.990Z,0.60
2019-01-26T07:06:44.285Z,0.60
2019-01-26T07:09:11.933Z,0.60
2019-01-26T07:11:39.583Z,0.60
2019-01-26T07:14:07.215Z,0.60
2019-01-26T07:16:34.847Z,0.60
2019-01-26T07:19:02.486Z,0.50
2019-01-26T07:21:30.119Z,0.60
2019-01-26T07:23:57.778Z,0.60
2019-01-26T07:28:52.793Z,0.60
2019-01-26T07:31:20.418Z,0.60
2019-01-26T07:33:48.061Z,0.60
2019-01-26T07:36:15.687Z,0.60
2019-01-26T07:38:43.313Z,0.60
2019-01-26T07:41:10.954Z,0.70
2019-01-26T07:43:39.498Z,0.70
2019-01-26T07:46:07.145Z,0.60
2019-01-26T07:48:34.790Z,0.70
2019-01-26T07:51:02.431Z,0.70
2019-01-26T07:53:30.121Z,0.70
2019-01-26T07:55:57.787Z,0.80
2019-01-26T07:58:25.419Z,0.80
2019-01-26T08:00:53.066Z,0.90
2019-01-26T08:03:20.691Z,0.80
2019-01-26T08:05:48.330Z,0.90
2019-01-26T08:08:15.958Z,0.90
2019-01-26T08:10:43.594Z,0.90
2019-01-26T08:13:11.223Z,0.90
2019-01-26T08:15:38.867Z,0.90
2019-01-26T08:18:06.490Z,0.90
2019-01-26T08:20:34.138Z,0.90
2019-01-26T08:23:01.774Z,0.90
2019-01-26T08:25:29.410Z,0.90
2019-01-26T08:27:57.038Z,1.00
2019-01-26T08:30:24.674Z,1.00
2019-01-26T08:32:52.303Z,1.10
2019-01-26T08:35:19.941Z,1.10
2019-01-26T08:37:47.643Z,1.10
2019-01-26T08:40:16.451Z,1.10
2019-01-26T08:42:44.075Z,1.10
2019-01-26T08:45:12.578Z,1.10
2019-01-26T08:47:40.223Z,1.20
2019-01-26T08:50:18.272Z,1.20
2019-01-26T08:52:46.849Z,1.20
2019-01-26T08:55:18.298Z,1.30
2019-01-26T08:57:44.027Z,1.30
2019-01-26T09:00:18.794Z,1.30
2019-01-26T09:02:48.454Z,1.30
2019-01-26T09:05:16.562Z,1.30
2019-01-26T09:07:44.202Z,1.30
2019-01-26T09:10:11.898Z,1.30
2019-01-26T09:12:39.539Z,1.30
2019-01-26T09:15:09.047Z,1.30
2019-01-26T09:17:36.690Z,1.30
2019-01-26T09:20:05.868Z,1.30
2019-01-26T09:22:34.446Z,1.30
2019-01-26T09:25:02.224Z,1.30
2019-01-26T09:27:29.871Z,1.40
2019-01-26T09:29:57.513Z,1.50
2019-01-26T09:32:25.170Z,1.40
2019-01-26T09:34:52.842Z,1.50
2019-01-26T09:37:20.488Z,1.60
2019-01-26T09:39:48.142Z,1.60
2019-01-26T09:42:15.791Z,1.60
2019-01-26T09:44:43.445Z,1.60
2019-01-26T09:47:11.110Z,1.60
2019-01-26T09:49:38.784Z,1.60
2019-01-26T09:52:06.499Z,1.70
2019-01-26T09:54:34.329Z,1.70
2019-01-26T09:57:02.072Z,1.70
2019-01-26T09:59:29.761Z,1.80
2019-01-26T10:04:24.904Z,2.90
2019-01-26T10:06:52.594Z,1.80
2019-01-26T10:09:20.275Z,1.70
2019-01-26T10:11:47.930Z,1.70
2019-01-26T10:14:16.731Z,1.80
2019-01-26T10:16:44.416Z,1.80
2019-01-26T10:19:12.062Z,1.80
2019-01-26T10:21:39.728Z,1.80
2019-01-26T10:24:09.388Z,1.80
2019-01-26T10:26:37.054Z,1.80
2019-01-26T10:29:04.771Z,1.90
2019-01-26T10:31:32.478Z,1.90
2019-01-26T10:34:00.232Z,1.80
2019-01-26T10:36:29.552Z,1.90
2019-01-26T10:38:58.312Z,1.90
2019-01-26T10:41:39.784Z,1.90
2019-01-26T10:44:09.203Z,1.90
2019-01-26T10:49:04.317Z,2.00
2019-01-26T10:51:31.990Z,2.00
2019-01-26T10:54:02.756Z,2.00
2019-01-26T10:56:30.396Z,2.00
2019-01-26T10:58:58.035Z,2.10
2019-01-26T11:01:25.667Z,2.20
2019-01-26T11:03:53.332Z,2.20
2019-01-26T11:06:20.962Z,2.20
2019-01-26T11:08:48.599Z,2.30
2019-01-26T11:11:16.259Z,2.30
2019-01-26T11:13:43.958Z,2.30
2019-01-26T11:16:11.574Z,2.30
2019-01-26T11:18:39.335Z,2.40
2019-01-26T11:21:06.982Z,2.30
2019-01-26T11:26:02.050Z,2.40
2019-01-26T11:28:29.682Z,2.50
2019-01-26T11:30:57.402Z,2.50
2019-01-26T11:33:25.035Z,2.60
2019-01-26T11:35:52.678Z,2.60
2019-01-26T11:38:20.307Z,2.60
2019-01-26T11:40:47.963Z,2.50
2019-01-26T11:43:15.607Z,2.60
2019-01-26T11:45:44.892Z,2.50
2019-01-26T11:48:14.163Z,2.60
2019-01-26T11:50:43.453Z,2.60
2019-01-26T11:53:12.008Z,2.50
2019-01-26T11:55:56.314Z,2.50
2019-01-26T11:58:23.938Z,2.60
2019-01-26T12:01:05.268Z,2.60
2019-01-26T12:03:38.410Z,2.50
2019-01-26T12:06:10.463Z,2.60
2019-01-26T12:08:38.106Z,2.60
2019-01-26T12:11:05.779Z,2.70
2019-01-26T12:13:34.346Z,2.70
2019-01-26T12:18:29.339Z,2.70
2019-01-26T12:20:56.967Z,2.80
2019-01-26T12:23:24.613Z,2.80
2019-01-26T12:25:52.230Z,2.80
2019-01-26T12:28:19.872Z,2.90
2019-01-26T12:33:14.879Z,3.00
2019-01-26T12:35:42.514Z,3.10
2019-01-26T12:38:10.245Z,3.10
2019-01-26T12:40:37.931Z,3.10
2019-01-26T12:43:12.347Z,3.10
2019-01-26T12:45:40.020Z,3.10
2019-01-26T12:48:07.735Z,3.10
2019-01-26T12:50:35.365Z,3.10
2019-01-26T12:53:03.010Z,3.10
2019-01-26T12:55:30.707Z,3.10
2019-01-26T12:57:59.847Z,3.10
2019-01-26T13:00:27.591Z,3.20
2019-01-26T13:02:55.236Z,3.10
2019-01-26T13:05:23.134Z,3.10
2019-01-26T13:07:50.974Z,3.20
2019-01-26T13:10:22.894Z,3.20
2019-01-26T13:12:50.699Z,3.10
2019-01-26T13:15:18.406Z,3.20
2019-01-26T13:17:46.106Z,3.20
2019-01-26T13:20:15.026Z,3.20
2019-01-26T13:22:42.662Z,3.20
2019-01-26T13:25:11.980Z,3.20
2019-01-26T13:27:39.610Z,3.30
2019-01-26T13:30:11.471Z,3.30
2019-01-26T13:32:39.097Z,3.30
2019-01-26T13:35:07.518Z,3.40
2019-01-26T13:37:35.146Z,3.40
2019-01-26T13:40:03.355Z,3.50
2019-01-26T13:42:31.067Z,3.50
2019-01-26T13:44:58.717Z,3.50
2019-01-26T13:47:26.337Z,3.60
2019-01-26T13:49:53.973Z,3.70
2019-01-26T13:52:21.611Z,3.70
2019-01-26T13:54:49.246Z,3.70
2019-01-26T13:57:16.874Z,3.60
2019-01-26T13:59:44.514Z,3.70
2019-01-26T14:02:12.143Z,3.70
2019-01-26T14:04:46.581Z,3.70
2019-01-26T14:07:14.203Z,3.80
2019-01-26T14:09:41.839Z,3.80
2019-01-26T14:12:09.472Z,3.70
2019-01-26T14:14:37.106Z,3.70
2019-01-26T14:17:04.766Z,3.70
2019-01-26T14:19:32.394Z,3.70
2019-01-26T14:22:00.038Z,3.60
2019-01-26T14:24:30.731Z,3.60
2019-01-26T14:26:58.374Z,3.60
2019-01-26T14:29:26.002Z,3.50
2019-01-26T14:31:53.645Z,3.50
2019-01-26T14:34:21.288Z,3.50
2019-01-26T14:36:48.934Z,3.50
2019-01-26T14:39:16.565Z,3.40
2019-01-26T14:41:44.202Z,3.50
2019-01-26T14:44:12.826Z,3.50
2019-01-26T14:46:40.467Z,3.40
2019-01-26T14:49:08.094Z,3.40
2019-01-26T14:51:35.738Z,3.40
2019-01-26T14:54:04.462Z,3.40
2019-01-26T14:56:32.102Z,3.40
2019-01-26T14:58:59.759Z,3.40
2019-01-26T15:01:27.410Z,3.30
2019-01-26T15:03:55.966Z,3.30
2019-01-26T15:06:23.608Z,3.30
2019-01-26T15:08:51.239Z,3.30
2019-01-26T15:11:18.920Z,3.30
2019-01-26T15:13:47.535Z,3.20
2019-01-26T15:16:15.182Z,3.20
2019-01-26T15:18:42.815Z,3.20
2019-01-26T15:21:10.444Z,3.20
2019-01-26T15:23:39.006Z,3.20
2019-01-26T15:26:06.629Z,3.20
2019-01-26T15:28:34.266Z,3.20
2019-01-26T15:31:01.902Z,3.20
2019-01-26T15:33:36.412Z,3.20
2019-01-26T15:36:08.947Z,3.20
2019-01-26T15:38:33.479Z,3.20
2019-01-26T15:41:01.108Z,3.20
2019-01-26T15:43:28.742Z,3.20
2019-01-26T15:45:56.379Z,3.20
2019-01-26T15:48:24.022Z,3.20
2019-01-26T15:50:51.652Z,3.10
2019-01-26T15:53:20.266Z,3.10
2019-01-26T15:55:47.886Z,3.10
2019-01-26T15:58:15.536Z,3.10
2019-01-26T16:00:43.926Z,3.00
2019-01-26T16:03:11.639Z,3.00
2019-01-26T16:05:39.279Z,3.10
2019-01-26T16:08:07.187Z,3.00
2019-01-26T16:10:34.823Z,3.00
2019-01-26T16:13:02.467Z,3.00
2019-01-26T16:15:31.262Z,3.00
2019-01-26T16:17:58.970Z,2.90
2019-01-26T16:20:26.607Z,2.90
2019-01-26T16:22:54.415Z,2.90
2019-01-26T16:25:22.043Z,3.00
2019-01-26T16:27:49.682Z,3.10
2019-01-26T16:30:18.684Z,3.00
2019-01-26T16:32:46.495Z,3.00
2019-01-26T16:35:14.892Z,3.00
2019-01-26T16:37:42.619Z,3.00
2019-01-26T16:40:17.916Z,3.00
2019-01-26T16:42:45.543Z,3.00
2019-01-26T16:45:14.721Z,3.00
2019-01-26T16:47:42.351Z,3.00
2019-01-26T16:50:11.542Z,3.10
2019-01-26T16:52:42.610Z,3.00
2019-01-26T16:55:11.331Z,3.00
2019-01-26T16:57:39.034Z,3.10
2019-01-26T17:00:10.988Z,3.00
2019-01-26T17:02:39.558Z,3.00
2019-01-26T17:05:08.074Z,3.00
2019-01-26T17:07:35.714Z,3.00
2019-01-26T17:10:04.628Z,3.00
2019-01-26T17:12:32.267Z,3.00
2019-01-26T17:14:59.952Z,3.00
2019-01-26T17:17:28.442Z,3.00
2019-01-26T17:19:56.083Z,3.00
2019-01-26T17:22:23.717Z,3.00
2019-01-26T17:24:51.360Z,3.00
2019-01-26T17:27:19.053Z,3.00
2019-01-26T17:29:46.713Z,3.10
2019-01-26T17:32:14.344Z,3.00
2019-01-26T17:34:41.986Z,3.00
2019-01-26T17:37:09.622Z,3.00
2019-01-26T17:39:37.264Z,3.00
2019-01-26T17:42:04.959Z,3.00
2019-01-26T17:44:32.607Z,3.00
2019-01-26T17:47:00.311Z,3.00
2019-01-26T17:49:27.942Z,3.00
2019-01-26T17:51:55.595Z,3.00
2019-01-26T17:54:25.170Z,3.00
2019-01-26T17:56:52.822Z,3.00
2019-01-26T17:59:20.454Z,3.00
2019-01-26T18:01:48.097Z,3.10
2019-01-26T18:04:15.727Z,3.00
2019-01-26T18:06:43.374Z,3.00
2019-01-26T18:09:11.002Z,3.00
2019-01-26T18:11:38.651Z,3.00
2019-01-26T18:14:06.277Z,3.00
2019-01-26T18:16:33.922Z,2.90
2019-01-26T18:19:01.550Z,3.00
2019-01-26T18:21:29.211Z,3.00
2019-01-26T18:23:56.814Z,3.00
2019-01-26T18:26:24.464Z,3.00
2019-01-26T18:28:52.093Z,3.00
2019-01-26T18:31:19.735Z,3.00
2019-01-26T18:33:47.367Z,3.00
2019-01-26T18:36:15.018Z,2.90
2019-01-26T18:38:42.713Z,3.00
2019-01-26T18:41:10.354Z,2.90
2019-01-26T18:43:37.995Z,3.00
2019-01-26T18:46:05.651Z,3.00
2019-01-26T18:48:33.283Z,3.00
2019-01-26T18:51:00.924Z,3.00
2019-01-26T18:53:28.554Z,3.00
2019-01-26T18:55:56.186Z,3.10
2019-01-26T18:58:23.846Z,3.10
2019-01-26T19:00:51.498Z,3.10
2019-01-26T19:03:20.866Z,3.10
2019-01-26T19:05:48.499Z,3.10
2019-01-26T19:08:16.147Z,3.10
2019-01-26T19:10:43.773Z,3.10
2019-01-26T19:13:11.415Z,3.10
2019-01-26T19:15:39.542Z,3.10
2019-01-26T19:18:07.263Z,3.10
2019-01-26T19:20:34.896Z,3.20
2019-01-26T19:23:02.541Z,3.20
2019-01-26T19:25:30.166Z,3.10
2019-01-26T19:27:57.806Z,3.20
2019-01-26T19:30:25.508Z,3.20
2019-01-26T19:32:54.357Z,3.20
2019-01-26T19:35:22.070Z,3.30
2019-01-26T19:37:49.717Z,3.20
2019-01-26T19:40:18.884Z,3.20
2019-01-26T19:42:46.531Z,3.20
2019-01-26T19:45:15.427Z,3.20
2019-01-26T19:47:43.069Z,3.20
2019-01-26T19:50:12.567Z,3.20
2019-01-26T19:52:45.419Z,3.20
2019-01-26T19:55:14.419Z,3.30
2019-01-26T19:57:42.092Z,3.30
2019-01-26T20:02:37.090Z,3.40
2019-01-26T20:05:06.299Z,3.40
2019-01-26T20:07:33.925Z,3.50
2019-01-26T20:10:01.575Z,3.40
2019-01-26T20:12:29.202Z,3.40
2019-01-26T20:14:56.843Z,3.40
2019-01-26T20:17:24.476Z,3.40
2019-01-26T20:19:52.121Z,3.40
2019-01-26T20:22:19.743Z,3.40
2019-01-26T20:24:47.407Z,3.50
2019-01-26T20:27:15.038Z,3.50
2019-01-26T20:29:42.684Z,3.50
2019-01-26T20:32:10.310Z,3.50
2019-01-26T20:34:37.954Z,3.50
2019-01-26T20:37:05.679Z,3.50
2019-01-26T20:39:33.321Z,3.50
2019-01-26T20:42:00.982Z,3.50
2019-01-26T20:44:28.626Z,3.50
2019-01-26T20:46:56.261Z,3.50
2019-01-26T20:49:23.911Z,3.50
2019-01-26T20:51:51.531Z,3.60
2019-01-26T20:54:20.126Z,3.50
2019-01-26T20:56:47.757Z,3.50
2019-01-26T20:59:15.390Z,3.50
2019-01-26T21:01:43.026Z,3.50
2019-01-26T21:04:10.654Z,3.50
2019-01-26T21:06:38.295Z,3.50
2019-01-26T21:09:06.795Z,3.50
2019-01-26T21:14:01.798Z,3.60
2019-01-26T21:16:29.442Z,3.60
2019-01-26T21:18:57.069Z,3.60
2019-01-26T21:21:24.711Z,3.60
2019-01-26T21:23:53.287Z,3.60
2019-01-26T21:26:20.927Z,3.70
2019-01-26T21:28:48.561Z,3.80
2019-01-26T21:31:16.206Z,3.80
2019-01-26T21:33:43.834Z,3.90
2019-01-26T21:36:11.537Z,3.80
2019-01-26T21:38:39.855Z,3.90
2019-01-26T21:41:07.650Z,3.80
2019-01-26T21:43:35.274Z,3.90
2019-01-26T21:46:03.287Z,3.90
2019-01-26T21:48:30.920Z,3.90
2019-01-26T21:50:58.558Z,4.00
2019-01-26T21:53:26.195Z,3.90
2019-01-26T21:55:53.840Z,3.90
2019-01-26T21:58:21.466Z,3.90
2019-01-26T22:00:49.090Z,3.90
2019-01-26T22:03:16.729Z,3.90
2019-01-26T22:05:44.366Z,3.90
2019-01-26T22:08:12.002Z,3.80
2019-01-26T22:10:39.634Z,3.90
2019-01-26T22:13:07.274Z,3.80
2019-01-26T22:15:34.907Z,3.80
2019-01-26T22:18:02.552Z,3.80
2019-01-26T22:20:30.238Z,3.70
2019-01-26T22:22:58.142Z,3.70
2019-01-26T22:25:25.772Z,3.70
2019-01-26T22:27:53.984Z,3.70
2019-01-26T22:30:23.151Z,3.70
2019-01-26T22:32:50.808Z,3.60
2019-01-26T22:35:18.611Z,3.60
2019-01-26T22:37:46.434Z,3.70
2019-01-26T22:40:15.930Z,3.70
2019-01-26T22:42:43.596Z,3.70
2019-01-26T22:45:11.590Z,3.60
2019-01-26T22:47:39.230Z,3.60
2019-01-26T22:50:08.423Z,3.60
2019-01-26T22:52:36.068Z,3.60
2019-01-26T22:55:05.576Z,3.60
2019-01-26T22:57:33.214Z,3.60
2019-01-26T23:00:00.846Z,3.50
2019-01-26T23:02:28.479Z,3.50
2019-01-26T23:04:57.662Z,3.40
2019-01-26T23:07:27.158Z,3.40
2019-01-26T23:09:59.309Z,3.40
2019-01-26T23:12:28.484Z,3.40
2019-01-26T23:15:00.603Z,3.40
2019-01-26T23:17:32.755Z,3.40
2019-01-26T23:20:01.950Z,3.50
2019-01-26T23:22:47.853Z,3.50
2019-01-26T23:25:19.787Z,3.40
2019-01-26T23:28:00.839Z,3.40
2019-01-26T23:30:30.018Z,3.40
2019-01-26T23:32:58.546Z,3.40
2019-01-26T23:35:26.190Z,3.40
2019-01-26T23:37:53.815Z,3.40
2019-01-26T23:40:21.454Z,3.50
2019-01-26T23:42:49.082Z,3.40
2019-01-26T23:45:16.727Z,3.50
2019-01-26T23:47:44.349Z,3.40
2019-01-26T23:50:12.062Z,3.40
2019-01-26T23:52:40.658Z,3.40
2019-01-26T23:55:09.381Z,3.40
2019-01-26T23:57:37.079Z,3.40
